Time,TemperatureF,DewpointF,PressureIn,WindDirection,WindDirectionDegrees,WindSpeedMPH,WindSpeedGustMPH,Humidity,HourlyPrecipIn,Conditions,Clouds,dailyrainin,SoftwareType,DateUTC
2013-03-02 00:02:00,34.3,27.6,30.27,NNW,333,0.0,0.0,76,0.00,,SKC,0.00,VWS V14.00,2013-03-02 08:02:00,
2013-03-02 00:07:00,34.3,27.6,30.27,NNW,333,0.0,0.0,76,0.00,,SKC,0.00,VWS V14.00,2013-03-02 08:07:00,
2013-03-02 00:12:00,34.3,27.6,30.27,NNW,333,0.0,0.0,76,0.00,,SKC,0.00,VWS V14.00,2013-03-02 08:12:00,
2013-03-02 00:17:00,34.3,27.9,30.27,NNW,333,0.0,0.0,77,0.00,,SKC,0.00,VWS V14.00,2013-03-02 08:17:00,
2013-03-02 00:22:00,34.3,27.9,30.27,NNW,333,0.0,0.0,77,0.00,,SKC,0.00,VWS V14.00,2013-03-02 08:22:00,
2013-03-02 00:27:00,34.0,27.2,30.27,NNW,333,0.0,0.0,76,0.00,,SKC,0.00,VWS V14.00,2013-03-02 08:27:00,
2013-03-02 00:32:00,33.8,27.0,30.27,NNW,333,0.0,0.0,76,0.00,,SKC,0.00,VWS V14.00,2013-03-02 08:32:00,
2013-03-02 00:37:00,33.6,27.2,30.27,NNW,333,0.0,0.0,77,0.00,,SKC,0.00,VWS V14.00,2013-03-02 08:37:00,
2013-03-02 00:42:00,33.6,27.2,30.27,NNW,333,0.0,0.0,77,0.00,,SKC,0.00,VWS V14.00,2013-03-02 08:42:00,
2013-03-02 00:47:00,33.6,27.2,30.27,NNW,333,0.0,0.0,77,0.00,,SKC,0.00,VWS V14.00,2013-03-02 08:47:00,
2013-03-02 00:52:00,33.6,27.2,30.27,NNW,333,0.0,0.0,77,0.00,,SKC,0.00,VWS V14.00,2013-03-02 08:52:00,
2013-03-02 00:57:00,33.6,27.2,30.27,NNW,333,0.0,0.0,77,0.00,,SKC,0.00,VWS V14.00,2013-03-02 08:57:00,
2013-03-02 01:03:00,33.6,27.5,30.27,NNW,333,0.0,0.0,78,0.00,,SKC,0.00,VWS V14.00,2013-03-02 09:03:00,
2013-03-02 01:08:00,33.6,27.5,30.27,NNW,333,0.0,0.0,78,0.00,,SKC,0.00,VWS V14.00,2013-03-02 09:08:00,
2013-03-02 01:13:00,33.6,27.5,30.27,NNW,333,0.0,0.0,78,0.00,,SKC,0.00,VWS V14.00,2013-03-02 09:13:00,
2013-03-02 01:18:00,33.6,27.5,30.27,NNW,333,0.0,0.0,78,0.00,,SKC,0.00,VWS V14.00,2013-03-02 09:18:00,
2013-03-02 01:23:00,33.4,27.3,30.27,NNW,333,2.2,2.2,78,0.00,,SKC,0.00,VWS V14.00,2013-03-02 09:23:00,
2013-03-02 01:28:00,33.1,26.7,30.27,NNW,333,0.0,0.0,77,0.00,,SKC,0.00,VWS V14.00,2013-03-02 09:28:00,
2013-03-02 01:33:00,32.9,26.5,30.27,NNW,333,0.0,0.0,77,0.00,,SKC,0.00,VWS V14.00,2013-03-02 09:33:00,
2013-03-02 01:38:00,32.7,26.3,30.27,NNW,333,0.0,0.0,77,0.00,,SKC,0.00,VWS V14.00,2013-03-02 09:38:00,
2013-03-02 01:43:00,32.7,26.6,30.27,NNW,333,0.0,0.0,78,0.00,,SKC,0.00,VWS V14.00,2013-03-02 09:43:00,
2013-03-02 01:48:00,32.7,26.6,30.27,NNW,333,0.0,0.0,78,0.00,,SKC,0.00,VWS V14.00,2013-03-02 09:48:00,
2013-03-02 01:53:00,32.7,26.6,30.27,NNW,333,0.0,0.0,78,0.00,,SKC,0.00,VWS V14.00,2013-03-02 09:53:00,
2013-03-02 01:58:00,32.7,26.6,30.27,NNW,333,0.0,0.0,78,0.00,,SKC,0.00,VWS V14.00,2013-03-02 09:58:00,
2013-03-02 02:03:00,32.7,26.6,30.24,NNW,333,0.0,0.0,78,0.00,,SKC,0.00,VWS V14.00,2013-03-02 10:03:00,
2013-03-02 02:08:00,32.7,26.6,30.24,NNW,333,0.0,0.0,78,0.00,,SKC,0.00,VWS V14.00,2013-03-02 10:08:00,
2013-03-02 02:13:00,32.5,26.5,30.24,NNW,333,0.0,0.0,78,0.00,,SKC,0.00,VWS V14.00,2013-03-02 10:13:00,
2013-03-02 02:18:00,32.5,26.5,30.24,NNW,333,0.0,0.0,78,0.00,,SKC,0.00,VWS V14.00,2013-03-02 10:18:00,
2013-03-02 02:23:00,32.4,26.3,30.24,NNW,333,0.0,0.0,78,0.00,,SKC,0.00,VWS V14.00,2013-03-02 10:23:00,
2013-03-02 02:29:00,32.5,26.5,30.24,NNW,333,0.0,0.0,78,0.00,,SKC,0.00,VWS V14.00,2013-03-02 10:29:00,
2013-03-02 02:34:00,32.7,26.6,30.24,NNW,333,0.0,0.0,78,0.00,,SKC,0.00,VWS V14.00,2013-03-02 10:34:00,
2013-03-02 02:39:00,32.9,27.1,30.24,NNW,333,0.0,0.0,79,0.00,,SKC,0.00,VWS V14.00,2013-03-02 10:39:00,
2013-03-02 02:44:00,33.1,27.3,30.24,NNW,333,0.0,0.0,79,0.00,,SKC,0.00,VWS V14.00,2013-03-02 10:44:00,
2013-03-02 02:49:00,33.1,27.3,30.24,NNW,333,0.0,0.0,79,0.00,,SKC,0.00,VWS V14.00,2013-03-02 10:49:00,
2013-03-02 02:54:00,33.1,27.3,30.24,NNW,333,0.0,0.0,79,0.00,,SKC,0.00,VWS V14.00,2013-03-02 10:54:00,
2013-03-02 02:59:00,32.9,27.1,30.24,NNW,333,0.0,0.0,79,0.00,,SKC,0.00,VWS V14.00,2013-03-02 10:59:00,
2013-03-02 03:04:00,32.7,26.9,30.24,NNW,333,0.0,0.0,79,0.00,,SKC,0.00,VWS V14.00,2013-03-02 11:04:00,
2013-03-02 03:09:00,32.7,26.9,30.24,NNW,333,0.0,0.0,79,0.00,,SKC,0.00,VWS V14.00,2013-03-02 11:09:00,
2013-03-02 03:15:00,32.9,27.1,30.24,NNW,333,0.0,0.0,79,0.00,,SKC,0.00,VWS V14.00,2013-03-02 11:15:00,
2013-03-02 03:20:00,32.9,27.1,30.24,NNW,333,0.0,0.0,79,0.00,,SKC,0.00,VWS V14.00,2013-03-02 11:20:00,
2013-03-02 03:25:00,33.1,27.3,30.24,NNW,333,0.0,0.0,79,0.00,,SKC,0.00,VWS V14.00,2013-03-02 11:25:00,
2013-03-02 03:30:00,33.1,27.3,30.24,NNW,333,0.0,0.0,79,0.00,,SKC,0.00,VWS V14.00,2013-03-02 11:30:00,
2013-03-02 03:35:00,33.1,27.6,30.21,NNW,333,0.0,0.0,80,0.00,,SKC,0.00,VWS V14.00,2013-03-02 11:35:00,
2013-03-02 03:40:00,33.1,27.6,30.21,NNW,333,0.0,0.0,80,0.00,,SKC,0.00,VWS V14.00,2013-03-02 11:40:00,
2013-03-02 03:45:00,33.3,27.8,30.21,NNW,333,0.0,0.0,80,0.00,,SKC,0.00,VWS V14.00,2013-03-02 11:45:00,
2013-03-02 03:50:00,33.3,27.8,30.24,NNW,333,0.0,0.0,80,0.00,,SKC,0.00,VWS V14.00,2013-03-02 11:50:00,
2013-03-02 03:55:00,33.3,27.8,30.24,NNW,333,0.0,0.0,80,0.00,,SKC,0.00,VWS V14.00,2013-03-02 11:55:00,
2013-03-02 04:00:00,33.4,27.9,30.24,NNW,333,0.0,0.0,80,0.00,,SKC,0.00,VWS V14.00,2013-03-02 12:00:00,
2013-03-02 04:05:00,33.6,28.1,30.24,NNW,333,0.0,0.0,80,0.00,,SKC,0.00,VWS V14.00,2013-03-02 12:05:00,
2013-03-02 04:10:00,33.6,28.1,30.24,NNW,333,0.0,0.0,80,0.00,,SKC,0.00,VWS V14.00,2013-03-02 12:10:00,
2013-03-02 04:15:00,33.6,28.1,30.24,NNW,333,0.0,0.0,80,0.00,,SKC,0.00,VWS V14.00,2013-03-02 12:15:00,
2013-03-02 04:20:00,33.6,28.1,30.21,NNW,333,0.0,0.0,80,0.00,,SKC,0.00,VWS V14.00,2013-03-02 12:20:00,
2013-03-02 04:25:00,33.4,27.9,30.21,NNW,333,0.0,0.0,80,0.00,,SKC,0.00,VWS V14.00,2013-03-02 12:25:00,
2013-03-02 04:31:00,33.3,27.8,30.21,NNW,333,0.0,0.0,80,0.00,,SKC,0.00,VWS V14.00,2013-03-02 12:31:00,
2013-03-02 04:36:00,33.3,27.8,30.24,NNW,333,0.0,0.0,80,0.00,,SKC,0.00,VWS V14.00,2013-03-02 12:36:00,
2013-03-02 04:41:00,33.3,27.8,30.24,NNW,333,0.0,0.0,80,0.00,,SKC,0.00,VWS V14.00,2013-03-02 12:41:00,
2013-03-02 04:46:00,33.3,27.8,30.24,NNW,333,0.0,0.0,80,0.00,,SKC,0.00,VWS V14.00,2013-03-02 12:46:00,
2013-03-02 04:51:00,33.3,28.1,30.21,NNW,333,0.0,0.0,81,0.00,,SKC,0.00,VWS V14.00,2013-03-02 12:51:00,
2013-03-02 04:56:00,33.3,28.1,30.21,NNW,332,0.0,0.0,81,0.00,,SKC,0.00,VWS V14.00,2013-03-02 12:56:00,
2013-03-02 05:01:00,33.3,28.1,30.21,NNW,332,0.0,0.0,81,0.00,,SKC,0.00,VWS V14.00,2013-03-02 13:01:00,
2013-03-02 05:06:00,33.4,28.2,30.21,NNW,332,0.0,0.0,81,0.00,,SKC,0.00,VWS V14.00,2013-03-02 13:06:00,
2013-03-02 05:11:00,33.4,28.2,30.21,NNW,332,0.0,0.0,81,0.00,,SKC,0.00,VWS V14.00,2013-03-02 13:11:00,
2013-03-02 05:16:00,33.3,28.1,30.21,NNW,332,0.0,0.0,81,0.00,,SKC,0.00,VWS V14.00,2013-03-02 13:16:00,
2013-03-02 05:21:00,33.4,28.2,30.21,NNW,332,0.0,0.0,81,0.00,,SKC,0.00,VWS V14.00,2013-03-02 13:21:00,
2013-03-02 05:26:00,33.4,28.2,30.21,NNW,332,0.0,0.0,81,0.00,,SKC,0.00,VWS V14.00,2013-03-02 13:26:00,
2013-03-02 05:31:00,33.4,28.2,30.21,NNW,332,0.0,0.0,81,0.00,,SKC,0.00,VWS V14.00,2013-03-02 13:31:00,
2013-03-02 05:36:00,33.4,28.2,30.21,NNW,332,0.0,0.0,81,0.00,,SKC,0.00,VWS V14.00,2013-03-02 13:36:00,
2013-03-02 05:42:00,33.3,28.1,30.21,NNW,332,0.0,0.0,81,0.00,,SKC,0.00,VWS V14.00,2013-03-02 13:42:00,
2013-03-02 05:47:00,33.3,28.1,30.21,NNW,332,0.0,0.0,81,0.00,,SKC,0.00,VWS V14.00,2013-03-02 13:47:00,
2013-03-02 05:52:00,33.1,27.9,30.21,NNW,332,0.0,0.0,81,0.00,,SKC,0.00,VWS V14.00,2013-03-02 13:52:00,
2013-03-02 05:57:00,33.1,27.9,30.21,NNW,332,0.0,0.0,81,0.00,,SKC,0.00,VWS V14.00,2013-03-02 13:57:00,
2013-03-02 06:02:00,33.1,27.9,30.21,NNW,332,0.0,0.0,81,0.00,,SKC,0.00,VWS V14.00,2013-03-02 14:02:00,
2013-03-02 06:07:00,33.1,28.2,30.21,NNW,332,0.0,0.0,82,0.00,,SKC,0.00,VWS V14.00,2013-03-02 14:07:00,
2013-03-02 06:12:00,33.3,28.4,30.21,NNW,332,0.0,0.0,82,0.00,,SKC,0.00,VWS V14.00,2013-03-02 14:12:00,
2013-03-02 06:17:00,33.4,28.5,30.21,NNW,332,0.0,0.0,82,0.00,,SKC,0.00,VWS V14.00,2013-03-02 14:17:00,
2013-03-02 06:22:00,33.8,28.9,30.21,NNW,332,0.0,0.0,82,0.00,,SKC,0.00,VWS V14.00,2013-03-02 14:22:00,
2013-03-02 06:27:00,33.8,28.9,30.21,NNW,332,0.0,0.0,82,0.00,,SKC,0.00,VWS V14.00,2013-03-02 14:27:00,
2013-03-02 06:32:00,33.6,28.7,30.18,NNW,332,0.0,0.0,82,0.00,,SKC,0.00,VWS V14.00,2013-03-02 14:32:00,
2013-03-02 06:37:00,33.4,28.5,30.18,NNW,332,0.0,0.0,82,0.00,,SKC,0.00,VWS V14.00,2013-03-02 14:37:00,
2013-03-02 06:42:00,33.3,28.4,30.18,NNW,332,0.0,0.0,82,0.00,,SKC,0.00,VWS V14.00,2013-03-02 14:42:00,
2013-03-02 06:47:00,33.1,28.2,30.18,NNW,332,0.0,0.0,82,0.00,,SKC,0.00,VWS V14.00,2013-03-02 14:47:00,
2013-03-02 06:52:00,33.1,28.2,30.18,NNW,332,0.0,0.0,82,0.00,,SKC,0.00,VWS V14.00,2013-03-02 14:52:00,
2013-03-02 06:57:00,33.1,28.2,30.18,NNW,332,0.0,0.0,82,0.00,,SKC,0.00,VWS V14.00,2013-03-02 14:57:00,
2013-03-02 07:02:00,33.1,28.2,30.18,NNW,332,0.0,0.0,82,0.00,,SKC,0.00,VWS V14.00,2013-03-02 15:02:00,
2013-03-02 07:07:00,33.1,28.2,30.18,NNW,332,0.0,0.0,82,0.00,,SKC,0.00,VWS V14.00,2013-03-02 15:07:00,
2013-03-02 07:12:00,33.3,28.4,30.18,NNW,332,0.0,0.0,82,0.00,,SKC,0.00,VWS V14.00,2013-03-02 15:12:00,
2013-03-02 07:17:00,33.4,28.5,30.18,NNW,332,0.0,0.0,82,0.00,,SKC,0.00,VWS V14.00,2013-03-02 15:17:00,
2013-03-02 07:22:00,33.6,28.7,30.18,NNW,332,0.0,0.0,82,0.00,,SKC,0.00,VWS V14.00,2013-03-02 15:22:00,
2013-03-02 07:28:00,33.8,28.9,30.18,NNW,332,0.0,0.0,82,0.00,,SKC,0.00,VWS V14.00,2013-03-02 15:28:00,
2013-03-02 07:33:00,33.8,28.9,30.18,NNW,332,0.0,0.0,82,0.00,,SKC,0.00,VWS V14.00,2013-03-02 15:33:00,
2013-03-02 07:38:00,34.0,29.1,30.18,NNW,332,0.0,0.0,82,0.00,,SKC,0.00,VWS V14.00,2013-03-02 15:38:00,
2013-03-02 07:43:00,34.2,29.2,30.18,NNW,332,0.0,0.0,82,0.00,,SKC,0.00,VWS V14.00,2013-03-02 15:43:00,
2013-03-02 07:48:00,34.3,29.7,30.18,NNW,332,0.0,0.0,83,0.00,,SKC,0.00,VWS V14.00,2013-03-02 15:48:00,
2013-03-02 07:53:00,34.5,29.9,30.18,NNW,332,0.0,0.0,83,0.00,,SKC,0.00,VWS V14.00,2013-03-02 15:53:00,
2013-03-02 07:58:00,34.5,29.9,30.18,NNW,332,0.0,0.0,83,0.00,,SKC,0.00,VWS V14.00,2013-03-02 15:58:00,
2013-03-02 08:03:00,34.7,30.1,30.18,NNW,332,0.0,0.0,83,0.00,,SKC,0.00,VWS V14.00,2013-03-02 16:03:00,
2013-03-02 08:08:00,34.7,30.1,30.18,NNW,332,0.0,0.0,83,0.00,,SKC,0.00,VWS V14.00,2013-03-02 16:08:00,
2013-03-02 08:13:00,34.7,30.1,30.18,NNW,332,0.0,0.0,83,0.00,,SKC,0.00,VWS V14.00,2013-03-02 16:13:00,
2013-03-02 08:19:00,34.7,30.1,30.18,NNW,332,0.0,0.0,83,0.00,,SKC,0.00,VWS V14.00,2013-03-02 16:19:00,
2013-03-02 08:24:00,35.1,30.4,30.18,NNW,332,0.0,0.0,83,0.00,,SKC,0.00,VWS V14.00,2013-03-02 16:24:00,
2013-03-02 08:29:00,35.2,30.6,30.18,NNW,332,0.0,0.0,83,0.00,,SKC,0.00,VWS V14.00,2013-03-02 16:29:00,
2013-03-02 08:34:00,35.4,30.8,30.18,NNW,332,0.0,0.0,83,0.00,,SKC,0.00,VWS V14.00,2013-03-02 16:34:00,
2013-03-02 08:39:00,35.8,31.1,30.18,NNW,332,0.0,0.0,83,0.00,,SKC,0.00,VWS V14.00,2013-03-02 16:39:00,
2013-03-02 08:44:00,36.1,31.5,30.18,NNW,332,0.0,0.0,83,0.00,,SKC,0.00,VWS V14.00,2013-03-02 16:44:00,
2013-03-02 08:49:00,36.3,31.7,30.18,NNW,332,0.0,0.0,83,0.00,,SKC,0.00,VWS V14.00,2013-03-02 16:49:00,
2013-03-02 08:54:00,36.7,32.0,30.18,NNW,332,0.0,0.0,83,0.00,,SKC,0.00,VWS V14.00,2013-03-02 16:54:00,
2013-03-02 08:59:00,37.0,32.4,30.18,NNW,332,0.0,0.0,83,0.00,,SKC,0.00,VWS V14.00,2013-03-02 16:59:00,
2013-03-02 09:04:00,37.4,32.7,30.18,NNW,332,0.0,0.0,83,0.00,,SKC,0.00,VWS V14.00,2013-03-02 17:04:00,
2013-03-02 09:09:00,37.4,32.7,30.18,NNW,332,0.0,0.0,83,0.00,,SKC,0.00,VWS V14.00,2013-03-02 17:09:00,
2013-03-02 09:14:00,37.6,32.9,30.18,NNW,332,0.0,0.0,83,0.00,,SKC,0.00,VWS V14.00,2013-03-02 17:14:00,
2013-03-02 09:19:00,37.6,32.9,30.18,NNW,332,0.0,0.0,83,0.00,,SKC,0.00,VWS V14.00,2013-03-02 17:19:00,
2013-03-02 09:24:00,37.8,33.1,30.18,NNW,332,0.0,0.0,83,0.00,,SKC,0.00,VWS V14.00,2013-03-02 17:24:00,
2013-03-02 09:30:00,37.8,33.1,30.18,NNW,332,0.0,0.0,83,0.00,,SKC,0.00,VWS V14.00,2013-03-02 17:30:00,
2013-03-02 09:35:00,38.1,33.4,30.18,NNW,332,0.0,0.0,83,0.00,,SKC,0.00,VWS V14.00,2013-03-02 17:35:00,
2013-03-02 09:40:00,38.3,33.6,30.18,NNW,332,0.0,0.0,83,0.00,,SKC,0.00,VWS V14.00,2013-03-02 17:40:00,
2013-03-02 09:45:00,38.7,34.0,30.18,NNW,332,0.0,0.0,83,0.00,,SKC,0.00,VWS V14.00,2013-03-02 17:45:00,
2013-03-02 09:50:00,38.8,34.1,30.15,NNW,332,0.0,0.0,83,0.00,,SKC,0.00,VWS V14.00,2013-03-02 17:50:00,
2013-03-02 09:55:00,39.2,34.5,30.15,NNW,332,0.0,0.0,83,0.00,,SKC,0.00,VWS V14.00,2013-03-02 17:55:00,
2013-03-02 10:00:00,39.7,35.0,30.15,NNW,332,0.0,0.0,83,0.00,,SKC,0.00,VWS V14.00,2013-03-02 18:00:00,
2013-03-02 10:05:00,40.3,35.8,30.15,NNW,332,0.0,0.0,84,0.00,,SKC,0.00,VWS V14.00,2013-03-02 18:05:00,
2013-03-02 10:10:00,40.6,36.2,30.15,NNW,332,0.0,0.0,84,0.00,,SKC,0.00,VWS V14.00,2013-03-02 18:10:00,
2013-03-02 10:15:00,40.5,36.0,30.15,North,0,0.0,0.0,84,0.00,,SKC,0.00,VWS V14.00,2013-03-02 18:15:00,
2013-03-02 10:20:00,39.7,35.0,30.15,North,0,0.0,0.0,83,0.00,,SKC,0.00,VWS V14.00,2013-03-02 18:20:00,
2013-03-02 10:25:00,39.2,34.2,30.15,NW,322,4.0,4.5,82,0.00,,SKC,0.00,VWS V14.00,2013-03-02 18:25:00,
2013-03-02 10:30:00,38.8,33.8,30.15,NNW,327,3.1,3.1,82,0.00,,SKC,0.00,VWS V14.00,2013-03-02 18:30:00,
2013-03-02 10:35:00,38.7,33.3,30.15,NNW,329,0.0,0.0,81,0.00,,SKC,0.00,VWS V14.00,2013-03-02 18:35:00,
2013-03-02 10:40:00,38.8,33.5,30.15,North,357,0.0,0.0,81,0.00,,SKC,0.00,VWS V14.00,2013-03-02 18:40:00,
2013-03-02 10:45:00,39.6,34.2,30.15,NW,326,2.2,2.7,81,0.00,,SKC,0.00,VWS V14.00,2013-03-02 18:45:00,
2013-03-02 10:50:00,39.9,34.3,30.15,NNW,327,0.0,0.0,80,0.00,,SKC,0.00,VWS V14.00,2013-03-02 18:50:00,
2013-03-02 10:55:00,40.5,34.8,30.15,North,0,0.0,0.0,80,0.00,,SKC,0.00,VWS V14.00,2013-03-02 18:55:00,
2013-03-02 11:00:00,41.2,35.2,30.15,NNW,336,3.1,3.1,79,0.00,,SKC,0.00,VWS V14.00,2013-03-02 19:00:00,
2013-03-02 11:06:00,42.3,35.9,30.15,NNW,332,0.0,0.0,78,0.00,,SKC,0.00,VWS V14.00,2013-03-02 19:06:00,
2013-03-02 11:11:00,42.6,35.9,30.15,NNW,330,0.0,0.0,77,0.00,,SKC,0.00,VWS V14.00,2013-03-02 19:11:00,
2013-03-02 11:16:00,43.2,35.8,30.12,NNW,339,0.0,0.0,75,0.00,,SKC,0.00,VWS V14.00,2013-03-02 19:16:00,
2013-03-02 11:21:00,43.7,36.0,30.12,NNW,339,0.0,0.0,74,0.00,,SKC,0.00,VWS V14.00,2013-03-02 19:21:00,
2013-03-02 11:26:00,44.6,36.2,30.12,NW,325,0.0,0.0,72,0.00,,SKC,0.00,VWS V14.00,2013-03-02 19:26:00,
2013-03-02 11:31:00,45.1,35.6,30.12,NW,325,0.0,0.0,69,0.00,,SKC,0.00,VWS V14.00,2013-03-02 19:31:00,
2013-03-02 11:36:00,45.1,34.5,30.12,NW,325,0.0,0.0,66,0.00,,SKC,0.00,VWS V14.00,2013-03-02 19:36:00,
2013-03-02 11:41:00,44.6,33.2,30.12,NW,325,0.0,0.0,64,0.00,,SKC,0.00,VWS V14.00,2013-03-02 19:41:00,
2013-03-02 11:46:00,44.1,31.5,30.12,NW,325,0.0,0.0,61,0.00,,SKC,0.00,VWS V14.00,2013-03-02 19:46:00,
2013-03-02 11:51:00,44.1,30.2,30.12,NW,325,0.0,0.0,58,0.00,,SKC,0.00,VWS V14.00,2013-03-02 19:51:00,
2013-03-02 11:56:00,44.2,29.5,30.12,NW,325,0.0,3.1,56,0.00,,SKC,0.00,VWS V14.00,2013-03-02 19:56:00,
2013-03-02 12:01:00,44.2,29.5,30.12,NW,325,0.0,0.0,56,0.00,,SKC,0.00,VWS V14.00,2013-03-02 20:01:00,
2013-03-02 12:06:00,44.2,28.7,30.12,NW,325,0.0,0.0,54,0.00,,SKC,0.00,VWS V14.00,2013-03-02 20:06:00,
2013-03-02 12:11:00,44.2,28.2,30.12,NW,325,0.0,0.0,53,0.00,,SKC,0.00,VWS V14.00,2013-03-02 20:11:00,
2013-03-02 12:16:00,44.8,28.7,30.09,NW,325,0.0,0.0,53,0.00,,SKC,0.00,VWS V14.00,2013-03-02 20:16:00,
2013-03-02 12:21:00,45.5,28.4,30.09,NW,324,0.0,0.0,51,0.00,,SKC,0.00,VWS V14.00,2013-03-02 20:21:00,
2013-03-02 12:26:00,45.9,28.3,30.09,NW,324,0.0,0.0,50,0.00,,SKC,0.00,VWS V14.00,2013-03-02 20:26:00,
2013-03-02 12:31:00,46.2,28.1,30.09,NW,324,0.0,0.0,49,0.00,,SKC,0.00,VWS V14.00,2013-03-02 20:31:00,
2013-03-02 12:36:00,46.2,28.1,30.09,NW,324,0.0,0.0,49,0.00,,SKC,0.00,VWS V14.00,2013-03-02 20:36:00,
2013-03-02 12:41:00,46.2,27.6,30.09,NW,324,0.0,0.0,48,0.00,,SKC,0.00,VWS V14.00,2013-03-02 20:41:00,
2013-03-02 12:46:00,46.2,27.1,30.09,NW,324,0.0,0.0,47,0.00,,SKC,0.00,VWS V14.00,2013-03-02 20:46:00,
2013-03-02 12:51:00,46.0,26.4,30.09,NW,324,0.0,0.0,46,0.00,,SKC,0.00,VWS V14.00,2013-03-02 20:51:00,
2013-03-02 12:56:00,45.9,25.7,30.09,NW,324,0.0,0.0,45,0.00,,SKC,0.00,VWS V14.00,2013-03-02 20:56:00,
2013-03-02 13:01:00,46.0,26.4,30.09,NW,324,0.0,0.0,46,0.00,,SKC,0.00,VWS V14.00,2013-03-02 21:01:00,
2013-03-02 13:06:00,46.2,26.1,30.09,NW,324,0.0,0.0,45,0.00,,SKC,0.00,VWS V14.00,2013-03-02 21:06:00,
2013-03-02 13:11:00,46.4,25.7,30.09,NW,324,0.0,0.0,44,0.00,,SKC,0.00,VWS V14.00,2013-03-02 21:11:00,
2013-03-02 13:17:00,46.4,25.7,30.09,NW,324,0.0,0.0,44,0.00,,SKC,0.00,VWS V14.00,2013-03-02 21:17:00,
2013-03-02 13:22:00,46.4,25.7,30.09,NW,324,0.0,0.0,44,0.00,,SKC,0.00,VWS V14.00,2013-03-02 21:22:00,
2013-03-02 13:27:00,46.6,25.9,30.09,NW,324,0.0,0.0,44,0.00,,SKC,0.00,VWS V14.00,2013-03-02 21:27:00,
2013-03-02 13:32:00,46.8,25.5,30.06,NW,324,0.0,0.0,43,0.00,,SKC,0.00,VWS V14.00,2013-03-02 21:32:00,
2013-03-02 13:37:00,46.9,25.6,30.06,NW,324,0.0,0.0,43,0.00,,SKC,0.00,VWS V14.00,2013-03-02 21:37:00,
2013-03-02 13:42:00,47.3,26.0,30.06,NW,324,0.0,0.0,43,0.00,,SKC,0.00,VWS V14.00,2013-03-02 21:42:00,
2013-03-02 13:47:00,47.7,26.3,30.06,NW,324,0.0,0.0,43,0.00,,SKC,0.00,VWS V14.00,2013-03-02 21:47:00,
2013-03-02 13:52:00,48.0,26.6,30.06,NW,324,0.0,0.0,43,0.00,,SKC,0.00,VWS V14.00,2013-03-02 21:52:00,
2013-03-02 13:57:00,48.4,26.4,30.06,NW,324,0.0,0.0,42,0.00,,SKC,0.00,VWS V14.00,2013-03-02 21:57:00,
2013-03-02 14:02:00,48.6,26.0,30.06,NW,324,0.0,0.0,41,0.00,,SKC,0.00,VWS V14.00,2013-03-02 22:02:00,
2013-03-02 14:07:00,48.6,26.0,30.06,NW,324,0.0,0.0,41,0.00,,SKC,0.00,VWS V14.00,2013-03-02 22:07:00,
2013-03-02 14:12:00,48.7,26.1,30.06,NW,324,0.0,0.0,41,0.00,,SKC,0.00,VWS V14.00,2013-03-02 22:12:00,
2013-03-02 14:17:00,48.7,26.1,30.06,NW,324,0.0,0.0,41,0.00,,SKC,0.00,VWS V14.00,2013-03-02 22:17:00,
2013-03-02 14:22:00,48.6,25.4,30.06,NW,324,0.0,0.0,40,0.00,,SKC,0.00,VWS V14.00,2013-03-02 22:22:00,
2013-03-02 14:27:00,48.6,25.4,30.06,NW,324,0.0,0.0,40,0.00,,SKC,0.00,VWS V14.00,2013-03-02 22:27:00,
2013-03-02 14:32:00,48.2,25.0,30.06,NW,324,0.0,0.0,40,0.00,,SKC,0.00,VWS V14.00,2013-03-02 22:32:00,
2013-03-02 14:37:00,47.7,24.5,30.06,NW,324,0.0,0.0,40,0.00,,SKC,0.00,VWS V14.00,2013-03-02 22:37:00,
2013-03-02 14:42:00,47.1,24.1,30.06,NW,324,0.0,0.0,40,0.00,,SKC,0.00,VWS V14.00,2013-03-02 22:42:00,
2013-03-02 14:48:00,46.9,23.9,30.06,NW,324,0.0,0.0,40,0.00,,SKC,0.00,VWS V14.00,2013-03-02 22:48:00,
2013-03-02 14:53:00,46.8,24.3,30.06,NW,324,0.0,0.0,41,0.00,,SKC,0.00,VWS V14.00,2013-03-02 22:53:00,
2013-03-02 14:58:00,46.9,24.5,30.06,NW,324,0.0,0.0,41,0.00,,SKC,0.00,VWS V14.00,2013-03-02 22:58:00,
2013-03-02 15:03:00,47.1,25.2,30.03,NW,324,0.0,0.0,42,0.00,,SKC,0.00,VWS V14.00,2013-03-02 23:03:00,
2013-03-02 15:08:00,47.3,25.4,30.03,NW,324,0.0,0.0,42,0.00,,SKC,0.00,VWS V14.00,2013-03-02 23:08:00,
2013-03-02 15:13:00,47.3,25.4,30.03,NW,324,0.0,0.0,42,0.00,,SKC,0.00,VWS V14.00,2013-03-02 23:13:00,
2013-03-02 15:18:00,46.8,24.9,30.03,NW,324,0.0,0.0,42,0.00,,SKC,0.00,VWS V14.00,2013-03-02 23:18:00,
2013-03-02 15:23:00,46.8,24.9,30.03,NW,324,0.0,0.0,42,0.00,,SKC,0.00,VWS V14.00,2013-03-02 23:23:00,
2013-03-02 15:28:00,46.6,24.7,30.03,NW,324,0.0,0.0,42,0.00,,SKC,0.00,VWS V14.00,2013-03-02 23:28:00,
2013-03-02 15:33:00,46.6,25.3,30.03,NW,324,0.0,0.0,43,0.00,,SKC,0.00,VWS V14.00,2013-03-02 23:33:00,
2013-03-02 15:38:00,46.8,25.5,30.03,NW,324,0.0,0.0,43,0.00,,SKC,0.00,VWS V14.00,2013-03-02 23:38:00,
2013-03-02 15:43:00,46.6,25.3,30.03,NW,324,0.0,0.0,43,0.00,,SKC,0.00,VWS V14.00,2013-03-02 23:43:00,
2013-03-02 15:48:00,46.4,25.1,30.03,NW,324,0.0,0.0,43,0.00,,SKC,0.00,VWS V14.00,2013-03-02 23:48:00,
2013-03-02 15:53:00,46.0,24.8,30.03,NW,324,0.0,0.0,43,0.00,,SKC,0.00,VWS V14.00,2013-03-02 23:53:00,
2013-03-02 15:59:00,45.3,24.2,30.03,NW,324,0.0,0.0,43,0.00,,SKC,0.00,VWS V14.00,2013-03-02 23:59:00,
2013-03-02 16:04:00,44.4,23.9,30.03,NW,324,0.0,0.0,44,0.00,,SKC,0.00,VWS V14.00,2013-03-03 00:04:00,
2013-03-02 16:09:00,44.1,23.6,30.03,NW,324,0.0,0.0,44,0.00,,SKC,0.00,VWS V14.00,2013-03-03 00:09:00,
2013-03-02 16:14:00,43.9,23.9,30.03,NW,324,0.0,0.0,45,0.00,,SKC,0.00,VWS V14.00,2013-03-03 00:14:00,
2013-03-02 16:19:00,43.5,23.6,30.03,NW,324,0.0,0.0,45,0.00,,SKC,0.00,VWS V14.00,2013-03-03 00:19:00,
2013-03-02 16:24:00,43.3,24.0,30.03,NW,324,0.0,0.0,46,0.00,,SKC,0.00,VWS V14.00,2013-03-03 00:24:00,
2013-03-02 16:29:00,43.0,23.6,30.03,NW,324,0.0,0.0,46,0.00,,SKC,0.00,VWS V14.00,2013-03-03 00:29:00,
2013-03-02 16:34:00,42.8,24.0,30.00,NW,324,0.0,0.0,47,0.00,,SKC,0.00,VWS V14.00,2013-03-03 00:34:00,
2013-03-02 16:39:00,42.8,24.5,30.00,NW,324,0.0,0.0,48,0.00,,SKC,0.00,VWS V14.00,2013-03-03 00:39:00,
2013-03-02 16:44:00,42.4,24.1,30.00,NW,324,0.0,0.0,48,0.00,,SKC,0.00,VWS V14.00,2013-03-03 00:44:00,
2013-03-02 16:49:00,41.7,23.5,30.00,NW,324,0.0,0.0,48,0.00,,SKC,0.00,VWS V14.00,2013-03-03 00:49:00,
2013-03-02 16:54:00,41.0,22.8,30.00,NW,324,0.0,0.0,48,0.00,,SKC,0.00,VWS V14.00,2013-03-03 00:54:00,
2013-03-02 16:59:00,40.6,22.5,30.00,NW,324,0.0,0.0,48,0.00,,SKC,0.00,VWS V14.00,2013-03-03 00:59:00,
2013-03-02 17:04:00,40.3,22.7,30.00,NW,324,0.0,0.0,49,0.00,,SKC,0.00,VWS V14.00,2013-03-03 01:04:00,
2013-03-02 17:09:00,40.1,22.5,30.00,NW,324,0.0,0.0,49,0.00,,SKC,0.00,VWS V14.00,2013-03-03 01:09:00,
2013-03-02 17:14:00,40.1,23.0,30.00,NW,324,0.0,0.0,50,0.00,,SKC,0.00,VWS V14.00,2013-03-03 01:14:00,
2013-03-02 17:20:00,40.5,23.8,30.00,NW,324,0.0,0.0,51,0.00,,SKC,0.00,VWS V14.00,2013-03-03 01:20:00,
2013-03-02 17:25:00,40.6,24.4,30.00,NW,324,0.0,0.0,52,0.00,,SKC,0.00,VWS V14.00,2013-03-03 01:25:00,
2013-03-02 17:30:00,40.6,24.4,30.00,NW,324,0.0,0.0,52,0.00,,SKC,0.00,VWS V14.00,2013-03-03 01:30:00,
2013-03-02 17:35:00,40.6,24.4,30.00,NW,324,0.0,0.0,52,0.00,,SKC,0.00,VWS V14.00,2013-03-03 01:35:00,
2013-03-02 17:40:00,40.6,24.4,30.00,NW,324,0.0,0.0,52,0.00,,SKC,0.00,VWS V14.00,2013-03-03 01:40:00,
2013-03-02 17:45:00,40.5,24.2,30.00,NW,324,0.0,0.0,52,0.00,,SKC,0.00,VWS V14.00,2013-03-03 01:45:00,
2013-03-02 17:50:00,40.1,23.9,30.00,NW,324,0.0,0.0,52,0.00,,SKC,0.00,VWS V14.00,2013-03-03 01:50:00,
2013-03-02 17:55:00,40.1,23.9,30.00,NW,324,0.0,0.0,52,0.00,,SKC,0.00,VWS V14.00,2013-03-03 01:55:00,
2013-03-02 18:00:00,39.9,24.2,30.00,NW,324,0.0,0.0,53,0.00,,SKC,0.00,VWS V14.00,2013-03-03 02:00:00,
2013-03-02 18:05:00,40.1,24.4,29.97,NW,324,0.0,0.0,53,0.00,,SKC,0.00,VWS V14.00,2013-03-03 02:05:00,
2013-03-02 18:10:00,39.9,24.6,29.97,NW,324,0.0,0.0,54,0.00,,SKC,0.00,VWS V14.00,2013-03-03 02:10:00,
2013-03-02 18:15:00,39.6,23.9,29.97,NW,324,0.0,0.0,53,0.00,,SKC,0.00,VWS V14.00,2013-03-03 02:15:00,
2013-03-02 18:20:00,38.8,23.2,29.97,NW,324,0.0,0.0,53,0.00,,SKC,0.00,VWS V14.00,2013-03-03 02:20:00,
2013-03-02 18:25:00,38.3,22.7,29.97,NW,324,0.0,0.0,53,0.00,,SKC,0.00,VWS V14.00,2013-03-03 02:25:00,
2013-03-02 18:30:00,37.9,22.4,29.97,NW,324,0.0,0.0,53,0.00,,SKC,0.00,VWS V14.00,2013-03-03 02:30:00,
2013-03-02 18:35:00,37.9,22.8,29.97,NW,324,0.0,0.0,54,0.00,,SKC,0.00,VWS V14.00,2013-03-03 02:35:00,
2013-03-02 18:40:00,38.1,23.8,29.97,NW,324,0.0,0.0,56,0.00,,SKC,0.00,VWS V14.00,2013-03-03 02:40:00,
2013-03-02 18:45:00,38.5,24.6,29.97,NW,324,0.0,0.0,57,0.00,,SKC,0.00,VWS V14.00,2013-03-03 02:45:00,
2013-03-02 18:50:00,38.1,24.2,29.94,NW,325,0.0,0.0,57,0.00,,SKC,0.00,VWS V14.00,2013-03-03 02:50:00,
2013-03-02 18:55:00,37.6,23.7,29.94,NW,325,0.0,0.0,57,0.00,,SKC,0.00,VWS V14.00,2013-03-03 02:55:00,
2013-03-02 19:00:00,37.2,23.8,29.94,NW,325,0.0,0.0,58,0.00,,SKC,0.00,VWS V14.00,2013-03-03 03:00:00,
2013-03-02 19:05:00,37.4,24.4,29.97,NW,325,0.0,0.0,59,0.00,,SKC,0.00,VWS V14.00,2013-03-03 03:05:00,
2013-03-02 19:10:00,37.4,24.4,29.97,NW,325,0.0,0.0,59,0.00,,SKC,0.00,VWS V14.00,2013-03-03 03:10:00,
2013-03-02 19:15:00,37.8,25.5,29.97,NW,325,0.0,0.0,61,0.00,,SKC,0.00,VWS V14.00,2013-03-03 03:15:00,
2013-03-02 19:20:00,37.9,25.7,29.97,NW,325,0.0,0.0,61,0.00,,SKC,0.00,VWS V14.00,2013-03-03 03:20:00,
2013-03-02 19:25:00,37.9,25.7,29.97,NW,325,0.0,0.0,61,0.00,,SKC,0.00,VWS V14.00,2013-03-03 03:25:00,
2013-03-02 19:30:00,37.9,26.1,29.97,NW,325,0.0,0.0,62,0.00,,SKC,0.00,VWS V14.00,2013-03-03 03:30:00,
2013-03-02 19:35:00,38.5,27.0,29.97,NNE,25,0.0,0.0,63,0.00,,SKC,0.00,VWS V14.00,2013-03-03 03:35:00,
2013-03-02 19:40:00,39.4,28.6,29.97,South,181,0.0,0.0,65,0.00,,SKC,0.00,VWS V14.00,2013-03-03 03:40:00,
2013-03-02 19:45:00,39.7,29.3,29.97,South,181,0.0,0.0,66,0.00,,SKC,0.00,VWS V14.00,2013-03-03 03:45:00,
2013-03-02 19:50:00,40.1,29.7,29.94,South,181,0.0,0.0,66,0.00,,SKC,0.00,VWS V14.00,2013-03-03 03:50:00,
2013-03-02 19:55:00,39.9,29.5,29.94,South,181,0.0,0.0,66,0.00,,SKC,0.00,VWS V14.00,2013-03-03 03:55:00,
2013-03-02 20:00:00,40.1,29.7,29.94,South,181,0.0,0.0,66,0.00,,SKC,0.00,VWS V14.00,2013-03-03 04:00:00,
2013-03-02 20:05:00,40.1,29.3,29.94,South,181,0.0,0.0,65,0.00,,SKC,0.00,VWS V14.00,2013-03-03 04:05:00,
2013-03-02 20:10:00,39.7,28.6,29.94,South,181,0.0,0.0,64,0.00,,SKC,0.00,VWS V14.00,2013-03-03 04:10:00,
2013-03-02 20:15:00,39.9,29.1,29.94,South,181,0.0,0.0,65,0.00,,SKC,0.00,VWS V14.00,2013-03-03 04:15:00,
2013-03-02 20:20:00,40.6,30.5,29.94,South,181,0.0,0.0,67,0.00,,SKC,0.00,VWS V14.00,2013-03-03 04:20:00,
2013-03-02 20:25:00,41.2,31.1,29.94,SSE,167,0.0,2.7,67,0.00,,SKC,0.00,VWS V14.00,2013-03-03 04:25:00,
2013-03-02 20:30:00,41.9,32.1,29.94,SE,143,0.0,0.0,68,0.00,,SKC,0.00,VWS V14.00,2013-03-03 04:30:00,
2013-03-02 20:35:00,42.1,31.9,29.91,SSE,168,0.0,0.0,67,0.00,,SKC,0.00,VWS V14.00,2013-03-03 04:35:00,
2013-03-02 20:40:00,41.7,31.2,29.91,SSE,168,0.0,0.0,66,0.00,,SKC,0.00,VWS V14.00,2013-03-03 04:40:00,
2013-03-02 20:45:00,42.1,31.2,29.91,SSE,160,0.0,0.0,65,0.00,,SKC,0.00,VWS V14.00,2013-03-03 04:45:00,
2013-03-02 20:50:00,42.3,31.4,29.94,SSE,155,0.0,0.0,65,0.00,,SKC,0.00,VWS V14.00,2013-03-03 04:50:00,
2013-03-02 20:55:00,42.4,31.1,29.94,SSE,153,0.0,0.0,64,0.00,,SKC,0.00,VWS V14.00,2013-03-03 04:55:00,
2013-03-02 21:00:00,42.6,30.9,29.94,SSE,153,0.0,0.0,63,0.00,,SKC,0.00,VWS V14.00,2013-03-03 05:00:00,
2013-03-02 21:01:00,42.4,30.8,29.94,SSE,153,0.0,0.0,63,0.00,,SKC,0.00,VWS V14.00,2013-03-03 05:01:00,
2013-03-02 21:06:00,42.3,29.8,29.91,SSE,161,0.0,0.0,61,0.00,,SKC,0.00,VWS V14.00,2013-03-03 05:06:00,
2013-03-02 21:11:00,42.4,30.0,29.91,SSE,154,0.0,0.0,61,0.00,,SKC,0.00,VWS V14.00,2013-03-03 05:11:00,
2013-03-02 21:16:00,43.3,30.8,29.91,SW,214,2.7,5.4,61,0.00,,SKC,0.00,VWS V14.00,2013-03-03 05:16:00,
2013-03-02 21:21:00,44.2,30.8,29.94,SSE,167,0.0,0.0,59,0.00,,SKC,0.00,VWS V14.00,2013-03-03 05:21:00,
2013-03-02 21:26:00,44.6,29.5,29.94,South,190,0.0,5.4,55,0.00,,SKC,0.00,VWS V14.00,2013-03-03 05:26:00,
2013-03-02 21:31:00,45.0,27.9,29.91,WSW,241,0.0,0.0,51,0.00,,SKC,0.00,VWS V14.00,2013-03-03 05:31:00,
2013-03-02 21:36:00,45.1,27.6,29.91,South,169,2.7,2.7,50,0.00,,SKC,0.00,VWS V14.00,2013-03-03 05:36:00,
2013-03-02 21:41:00,45.3,27.8,29.91,SSW,193,2.7,3.1,50,0.00,,SKC,0.00,VWS V14.00,2013-03-03 05:41:00,
2013-03-02 21:46:00,45.3,27.3,29.91,SSW,194,5.4,5.4,49,0.00,,SKC,0.00,VWS V14.00,2013-03-03 05:46:00,
2013-03-02 21:51:00,45.5,27.5,29.91,SSE,160,4.0,5.4,49,0.00,,SKC,0.00,VWS V14.00,2013-03-03 05:51:00,
2013-03-02 21:57:00,45.5,27.5,29.91,WSW,238,3.1,7.6,49,0.00,,SKC,0.00,VWS V14.00,2013-03-03 05:57:00,
2013-03-02 22:02:00,45.5,27.5,29.91,South,173,2.2,5.8,49,0.00,,SKC,0.00,VWS V14.00,2013-03-03 06:02:00,
2013-03-02 22:07:00,45.5,27.5,29.91,South,170,0.0,3.6,49,0.00,,SKC,0.00,VWS V14.00,2013-03-03 06:07:00,
2013-03-02 22:12:00,45.5,27.5,29.91,SSW,209,2.7,5.8,49,0.00,,SKC,0.00,VWS V14.00,2013-03-03 06:12:00,
2013-03-02 22:17:00,45.3,27.3,29.91,SSE,160,2.7,3.1,49,0.00,,SKC,0.00,VWS V14.00,2013-03-03 06:17:00,
2013-03-02 22:22:00,45.1,27.1,29.91,SSW,205,2.7,7.2,49,0.00,,SKC,0.00,VWS V14.00,2013-03-03 06:22:00,
2013-03-02 22:27:00,45.0,27.0,29.91,SSW,196,6.3,6.3,49,0.00,,SKC,0.00,VWS V14.00,2013-03-03 06:27:00,
2013-03-02 22:32:00,44.8,26.8,29.91,SW,222,3.1,5.4,49,0.00,,SKC,0.00,VWS V14.00,2013-03-03 06:32:00,
2013-03-02 22:37:00,44.6,26.1,29.91,South,175,6.3,6.3,48,0.00,,SKC,0.00,VWS V14.00,2013-03-03 06:37:00,
2013-03-02 22:42:00,44.2,26.3,29.91,SSW,200,2.7,4.0,49,0.00,,SKC,0.00,VWS V14.00,2013-03-03 06:42:00,
2013-03-02 22:47:00,44.1,26.1,29.91,South,171,5.4,5.8,49,0.00,,SKC,0.00,VWS V14.00,2013-03-03 06:47:00,
2013-03-02 22:52:00,43.9,26.0,29.91,South,179,3.6,3.6,49,0.00,,SKC,0.00,VWS V14.00,2013-03-03 06:52:00,
2013-03-02 22:57:00,43.5,25.6,29.91,SSE,166,2.7,3.1,49,0.00,,SKC,0.00,VWS V14.00,2013-03-03 06:57:00,
2013-03-02 23:02:00,43.3,26.0,29.88,SE,136,3.1,4.0,50,0.00,,SKC,0.00,VWS V14.00,2013-03-03 07:02:00,
2013-03-02 23:07:00,43.3,26.0,29.88,SE,128,2.7,4.9,50,0.00,,SKC,0.00,VWS V14.00,2013-03-03 07:07:00,
2013-03-02 23:12:00,43.2,25.8,29.88,SE,145,4.0,7.6,50,0.00,,SKC,0.00,VWS V14.00,2013-03-03 07:12:00,
2013-03-02 23:17:00,43.3,26.0,29.91,SSW,201,4.9,6.3,50,0.00,,SKC,0.00,VWS V14.00,2013-03-03 07:17:00,
2013-03-02 23:22:00,43.3,25.5,29.91,South,178,2.7,5.8,49,0.00,,SKC,0.00,VWS V14.00,2013-03-03 07:22:00,
2013-03-02 23:27:00,43.3,25.5,29.91,SSW,194,0.0,3.6,49,0.00,,SKC,0.00,VWS V14.00,2013-03-03 07:27:00,
2013-03-02 23:32:00,43.3,25.5,29.88,SSW,194,3.1,3.1,49,0.00,,SKC,0.00,VWS V14.00,2013-03-03 07:32:00,
2013-03-02 23:37:00,43.2,24.8,29.88,SE,145,3.1,4.0,48,0.00,,SKC,0.00,VWS V14.00,2013-03-03 07:37:00,
2013-03-02 23:42:00,43.0,24.6,29.88,WSW,238,3.1,5.4,48,0.00,,SKC,0.00,VWS V14.00,2013-03-03 07:42:00,
2013-03-02 23:47:00,42.8,24.5,29.88,SW,226,0.0,0.0,48,0.00,,SKC,0.00,VWS V14.00,2013-03-03 07:47:00,
2013-03-02 23:52:00,42.8,24.5,29.88,South,174,0.0,0.0,48,0.00,,SKC,0.00,VWS V14.00,2013-03-03 07:52:00,
2013-03-02 23:57:00,42.4,24.1,29.88,SSE,153,0.0,0.0,48,0.00,,SKC,0.00,VWS V14.00,2013-03-03 07:57:00,